ZMUB/ULN METAR and TAF weather

Enter ICAO airport designator
Station Type Date Time Source
ZMUB METAR 2020/07/12 19:00 UTC NOAA

ZMUB 121900Z 00000MPS 9999 SCT033 13/11 Q1012 NOSIG RMK QFE652.3 89 NT


Station Type Date Time Source
ZMUB Decoded METAR 2020/07/12 19:00 UTC NOAA

Ulan-Bator, Mongolia (ZMUB) 47-51N 106-46E
Jul 12, 2020 - 03:00 PM EDT / 2020.07.12 1900 UTC
Wind: Calm:0
Visibility: greater than 7 mile(s):0
Sky conditions: partly cloudy
Temperature: 55 F (13 C)
Dew Point: 51 F (11 C)
Relative Humidity: 87%
Pressure (altimeter): 29.88 in. Hg (1012 hPa)
ob: ZMUB 121900Z 00000MPS 9999 SCT033 13/11 Q1012 NOSIG RMK QFE652.3 89 NT
cycle: 19

Station Type Date Time Source
ZMUB TAF 2020/07/12 18:39 UTC NOAA

TAF TAF ZMUB 121633Z 1218/1324 VRB02MPS 9999 FEW030CB SCT033 TN12/1222Z TX26/1307Z PROB30
TEMPO 1218/1224 VRB08MPS TSRA SCT030CB SCT033 PROB30
TEMPO 1308/1319 VRB08MPS TSRA SCT030CB SCT033

Example: see airport list